Time;durP1;ratioP1;P1;durP2;ratioP2;P2;SDS_P1;SDS_P2;PMS_P1;PMS_P2;Temp;Humidity;BMP_temperature;BMP_pressure;BME280_temperature;BME280_humidity;BME280_pressure;Samples;Min_cycle;Max_cycle;Signal;HPM_P1;HPM_P2
2023/09/04 00:00:40;;;;;;;4.93;4.53;;;;;;;14.54;73.71;101679.47;10254946;28;20054;-75
2023/09/04 00:05:45;;;;;;;6.70;4.57;;;;;;;14.60;74.28;101695.19;10257015;28;20506;-75
2023/09/04 00:10:48;;;;;;;5.07;4.18;;;;;;;14.58;74.16;101689.03;10253862;28;20047;-75
2023/09/04 00:15:55;;;;;;;4.22;3.83;;;;;;;14.52;73.45;101694.94;10252610;28;20050;-75
2023/09/04 00:20:59;;;;;;;4.65;4.13;;;;;;;14.45;73.39;101690.97;10253020;28;20051;-75
2023/09/04 00:26:02;;;;;;;5.95;4.47;;;;;;;14.47;73.33;101699.81;10252850;28;20052;-74
2023/09/04 00:31:05;;;;;;;6.22;4.75;;;;;;;14.41;73.10;101691.34;10252582;28;20051;-74
2023/09/04 00:36:09;;;;;;;4.82;4.03;;;;;;;14.34;72.91;101694.47;10253345;28;20395;-75
2023/09/04 00:41:12;;;;;;;4.88;4.35;;;;;;;14.32;72.79;101690.16;10250508;28;20049;-75
2023/09/04 00:46:15;;;;;;;5.68;4.00;;;;;;;14.32;72.81;101691.03;10254916;28;20050;-75
2023/09/04 00:51:19;;;;;;;4.80;3.90;;;;;;;14.09;73.22;101695.47;10230527;28;20062;-75
2023/09/04 00:56:22;;;;;;;4.25;3.85;;;;;;;14.18;73.12;101690.34;10253100;28;20055;-75
2023/09/04 01:01:27;;;;;;;6.57;4.25;;;;;;;14.15;72.75;101689.63;10236152;28;20489;-75
2023/09/04 01:06:31;;;;;;;4.40;3.92;;;;;;;14.21;73.42;101677.47;10240809;28;20136;-75
2023/09/04 01:11:47;;;;;;;4.47;4.05;;;;;;;14.21;72.83;101682.03;10247789;28;20043;-75
2023/09/04 01:16:53;;;;;;;9.07;4.53;;;;;;;14.01;72.51;101684.38;10251086;28;20409;-75
2023/09/04 01:21:57;;;;;;;6.20;4.35;;;;;;;13.80;73.29;101667.09;10256229;28;20048;-75
2023/09/04 01:27:06;;;;;;;4.65;3.92;;;;;;;13.75;73.66;101674.66;10249496;28;20050;-75
2023/09/04 01:32:14;;;;;;;17.08;4.60;;;;;;;13.65;74.25;101671.78;10243334;28;20690;-75
2023/09/04 01:37:21;;;;;;;4.78;4.18;;;;;;;13.48;74.63;101667.59;10259429;28;20045;-75
2023/09/04 01:42:24;;;;;;;5.15;4.65;;;;;;;13.47;75.29;101664.06;10258960;28;20486;-76
2023/09/04 01:47:27;;;;;;;6.93;5.53;;;;;;;13.34;75.89;101668.59;10261390;28;20051;-76
2023/09/04 01:52:31;;;;;;;9.43;6.90;;;;;;;13.29;76.72;101665.34;10250379;28;20039;-75
2023/09/04 01:57:34;;;;;;;9.13;5.88;;;;;;;13.40;76.54;101672.72;10240089;28;20414;-76
2023/09/04 02:02:37;;;;;;;6.20;4.68;;;;;;;13.49;75.42;101654.00;10242668;28;20134;-75
2023/09/04 02:07:41;;;;;;;6.18;4.95;;;;;;;13.50;75.03;101657.56;10243643;28;20129;-75
2023/09/04 02:12:44;;;;;;;6.10;4.80;;;;;;;13.50;74.03;101652.19;10241992;28;20042;-75
2023/09/04 02:17:47;;;;;;;5.32;4.38;;;;;;;13.17;74.27;101656.31;10241882;28;20050;-76
2023/09/04 02:22:51;;;;;;;4.95;4.55;;;;;;;12.95;74.75;101657.00;10253162;28;20055;-76
2023/09/04 02:27:54;;;;;;;4.88;4.10;;;;;;;13.00;74.81;101645.84;10268097;28;20039;-75
2023/09/04 02:32:58;;;;;;;5.07;4.68;;;;;;;12.82;75.06;101656.13;10266407;28;20098;-75
2023/09/04 02:38:04;;;;;;;4.15;3.60;;;;;;;12.91;74.55;101649.22;10254764;28;20483;-76
2023/09/04 02:43:08;;;;;;;4.40;4.00;;;;;;;12.99;74.50;101657.63;10268397;28;20054;-76
2023/09/04 02:48:11;;;;;;;5.18;4.18;;;;;;;13.04;74.37;101648.22;10267832;28;20049;-76
2023/09/04 02:53:16;;;;;;;4.50;4.10;;;;;;;12.98;73.87;101650.53;10267468;28;20051;-75
2023/09/04 02:58:19;;;;;;;4.65;4.35;;;;;;;12.96;73.84;101657.84;10268042;28;20043;-74
2023/09/04 03:03:22;;;;;;;6.32;4.95;;;;;;;12.95;73.99;101651.59;10270685;28;20055;-75
2023/09/04 03:08:26;;;;;;;5.72;4.53;;;;;;;12.94;74.31;101651.69;10271665;28;20093;-74
2023/09/04 03:13:29;;;;;;;4.90;4.45;;;;;;;12.98;73.75;101651.38;10265905;28;20050;-74
2023/09/04 03:18:32;;;;;;;5.10;4.70;;;;;;;13.04;73.86;101647.38;10269690;28;20097;-74
2023/09/04 03:23:36;;;;;;;4.72;4.25;;;;;;;13.00;73.60;101638.66;10253773;28;20051;-76
2023/09/04 03:28:40;;;;;;;5.13;3.90;;;;;;;12.93;73.50;101637.34;10256648;28;20043;-76
2023/09/04 03:33:43;;;;;;;5.03;4.57;;;;;;;12.87;73.20;101642.34;10254578;28;20050;-76
2023/09/04 03:38:48;;;;;;;4.85;4.28;;;;;;;12.75;73.04;101642.22;10269729;28;20195;-76
2023/09/04 03:43:51;;;;;;;4.97;4.05;;;;;;;12.63;72.92;101634.13;10255039;28;20114;-76
2023/09/04 03:48:54;;;;;;;6.03;4.68;;;;;;;12.59;73.09;101637.03;10273683;28;20031;-76
2023/09/04 03:54:01;;;;;;;4.13;3.83;;;;;;;12.61;72.95;101631.53;10271826;28;20074;-75
2023/09/04 03:59:05;;;;;;;5.80;3.97;;;;;;;12.51;72.84;101634.03;10268894;28;20035;-75
2023/09/04 04:04:10;;;;;;;9.07;4.80;;;;;;;12.47;73.31;101629.78;10269054;28;20039;-76
2023/09/04 04:09:15;;;;;;;6.38;5.30;;;;;;;12.40;73.73;101633.91;10257514;28;20047;-76
2023/09/04 04:14:18;;;;;;;8.75;5.85;;;;;;;12.33;74.20;101637.97;10258175;28;20413;-76
2023/09/04 04:19:22;;;;;;;6.65;5.50;;;;;;;12.40;74.38;101639.28;10272104;28;20130;-75
2023/09/04 04:24:27;;;;;;;6.05;5.55;;;;;;;12.49;74.17;101646.72;10271889;28;20051;-76
2023/09/04 04:29:30;;;;;;;5.82;5.30;;;;;;;12.46;73.97;101638.00;10270818;28;20070;-75
2023/09/04 04:34:32;;;;;;;8.02;5.78;;;;;;;12.20;73.77;101650.53;10257689;28;20163;-75
2023/09/04 04:39:37;;;;;;;6.03;5.40;;;;;;;11.91;74.49;101639.91;10272989;28;20039;-75
2023/09/04 04:44:40;;;;;;;6.70;5.32;;;;;;;11.78;74.91;101629.06;10274572;28;20133;-75
2023/09/04 04:49:44;;;;;;;5.68;5.18;;;;;;;11.84;75.27;101628.66;10269155;28;20043;-75
2023/09/04 04:54:48;;;;;;;6.75;5.63;;;;;;;12.00;74.87;101633.03;10271898;28;20094;-75
2023/09/04 04:59:51;;;;;;;9.50;5.18;;;;;;;12.12;74.69;101641.16;10271371;28;20514;-75
2023/09/04 05:04:54;;;;;;;6.38;5.72;;;;;;;12.19;74.43;101638.88;10272593;28;20042;-75
2023/09/04 05:09:58;;;;;;;6.57;5.90;;;;;;;12.23;74.82;101640.41;10256930;28;20450;-75
2023/09/04 05:15:01;;;;;;;6.75;6.05;;;;;;;12.30;75.11;101646.28;10273221;28;20043;-75
2023/09/04 05:20:07;;;;;;;7.15;5.72;;;;;;;12.37;75.31;101639.50;10269777;28;20486;-75
2023/09/04 05:25:12;;;;;;;7.03;6.32;;;;;;;12.46;75.26;101640.69;10273727;28;20545;-76
2023/09/04 05:30:15;;;;;;;8.45;7.00;;;;;;;12.54;75.78;101649.13;10276329;28;20042;-75
2023/09/04 05:35:18;;;;;;;7.28;6.57;;;;;;;12.62;75.95;101652.16;10272667;28;20050;-75
2023/09/04 05:40:23;;;;;;;10.18;7.78;;;;;;;12.75;76.22;101657.50;10270115;28;20042;-75
2023/09/04 05:45:27;;;;;;;12.68;7.63;;;;;;;12.82;76.56;101648.03;10267658;28;20130;-74
2023/09/04 05:50:29;;;;;;;9.15;8.23;;;;;;;12.93;76.69;101652.69;10273553;28;20047;-74
2023/09/04 05:55:36;;;;;;;8.65;7.63;;;;;;;13.05;76.70;101651.78;10274810;28;20113;-75
2023/09/04 06:00:40;;;;;;;9.30;7.57;;;;;;;13.19;76.47;101640.88;10272483;28;20050;-75
2023/09/04 06:05:43;;;;;;;9.00;8.10;;;;;;;13.28;76.66;101644.75;10277037;28;20047;-75
2023/09/04 06:10:47;;;;;;;5.75;4.70;;;;;;;13.80;77.29;101640.94;10278771;28;20817;-75
2023/09/04 06:15:50;;;;;;;7.57;5.32;;;;;;;14.32;75.37;101641.53;10283421;28;20051;-75
2023/09/04 06:20:53;;;;;;;6.95;5.28;;;;;;;14.77;73.33;101650.59;10280652;28;20070;-74
2023/09/04 06:26:00;;;;;;;7.55;4.28;;;;;;;15.17;72.16;101633.91;10279403;28;20066;-75
2023/09/04 06:31:03;;;;;;;8.07;4.65;;;;;;;15.42;71.38;101634.63;10275859;28;20122;-75
2023/09/04 06:36:07;;;;;;;7.10;6.18;;;;;;;15.39;70.21;101641.16;10280518;28;20144;-75
2023/09/04 06:41:11;;;;;;;6.68;4.88;;;;;;;15.25;70.45;101650.38;10281895;28;20834;-75
2023/09/04 06:46:14;;;;;;;6.07;5.47;;;;;;;15.47;70.69;101649.53;10280061;28;20538;-75
2023/09/04 06:51:17;;;;;;;7.07;5.07;;;;;;;15.59;69.57;101644.09;10277452;28;20039;-75
2023/09/04 06:56:21;;;;;;;5.72;4.93;;;;;;;15.77;70.01;101647.09;10280387;28;20042;-75
2023/09/04 07:01:24;;;;;;;7.53;4.40;;;;;;;16.14;68.94;101643.00;10276888;28;20498;-75
2023/09/04 07:06:27;;;;;;;6.07;4.20;;;;;;;16.36;68.42;101646.66;10280440;28;20078;-75
2023/09/04 07:11:31;;;;;;;7.40;4.30;;;;;;;16.53;67.30;101646.03;10278074;28;20122;-73
2023/09/04 07:16:37;;;;;;;6.35;3.92;;;;;;;16.75;66.49;101639.59;10274906;28;20529;-75
2023/09/04 07:21:52;;;;;;;10.82;4.43;;;;;;;16.76;67.08;101641.34;10277131;28;20489;-75
2023/09/04 07:26:56;;;;;;;6.53;3.75;;;;;;;17.07;65.65;101646.78;10277923;28;20891;-75
2023/09/04 07:31:59;;;;;;;3.75;3.25;;;;;;;16.92;64.92;101651.72;10278077;28;20043;-75
2023/09/04 07:37:02;;;;;;;5.78;3.95;;;;;;;17.43;64.55;101652.66;10280783;28;20494;-75
2023/09/04 07:42:06;;;;;;;5.75;3.88;;;;;;;17.77;62.73;101650.44;10278521;28;20054;-75
2023/09/04 07:47:09;;;;;;;5.40;4.03;;;;;;;18.10;61.72;101661.91;10276116;28;20039;-75
2023/09/04 07:52:12;;;;;;;5.90;4.35;;;;;;;17.99;61.76;101667.50;10272866;28;20035;-75
2023/09/04 07:57:16;;;;;;;5.00;3.72;;;;;;;18.45;61.58;101665.91;10279801;28;20498;-75
2023/09/04 08:02:19;;;;;;;9.15;3.92;;;;;;;18.88;60.72;101661.88;10277745;28;20086;-75
2023/09/04 08:07:22;;;;;;;4.97;3.55;;;;;;;19.14;59.16;101667.47;10277331;28;20109;-77
2023/09/04 08:12:26;;;;;;;3.35;3.08;;;;;;;19.31;58.29;101654.94;10277459;28;20051;-76
2023/09/04 08:17:29;;;;;;;6.05;3.88;;;;;;;19.38;58.12;101658.78;10276915;28;20027;-75
2023/09/04 08:22:32;;;;;;;3.72;3.30;;;;;;;19.71;57.73;101654.59;10276522;28;20050;-76
2023/09/04 08:27:39;;;;;;;4.68;3.03;;;;;;;20.39;55.31;101650.50;10275430;28;20046;-76
2023/09/04 08:32:42;;;;;;;4.40;3.45;;;;;;;21.45;53.05;101643.78;10275487;28;20042;-75
2023/09/04 08:37:45;;;;;;;7.22;3.38;;;;;;;22.38;50.45;101633.69;10275667;28;20043;-75
2023/09/04 08:42:50;;;;;;;3.88;2.60;;;;;;;21.64;52.48;101639.94;10276950;28;20031;-75
2023/09/04 08:47:55;;;;;;;2.97;2.60;;;;;;;21.37;53.13;101637.44;10277213;28;20771;-75
2023/09/04 08:52:58;;;;;;;2.63;2.42;;;;;;;21.51;53.72;101634.06;10276251;28;20074;-76
2023/09/04 08:58:04;;;;;;;3.95;2.85;;;;;;;21.27;52.92;101623.91;10276477;28;20034;-75
2023/09/04 09:03:07;;;;;;;2.38;2.17;;;;;;;21.49;52.83;101621.59;10276324;28;20042;-76
2023/09/04 09:08:12;;;;;;;2.65;2.20;;;;;;;21.99;51.45;101607.00;10259464;28;20039;-76
2023/09/04 09:13:16;;;;;;;6.25;2.63;;;;;;;22.46;50.76;101598.13;10278243;28;20964;-75
2023/09/04 09:18:35;;;;;;;3.28;2.28;;;;;;;22.62;49.68;101589.03;10276331;28;20490;-75
2023/09/04 09:23:38;;;;;;;3.58;1.63;;;;;;;22.73;50.44;101596.84;10275373;28;20054;-75
2023/09/04 09:28:44;;;;;;;2.00;1.80;;;;;;;22.83;49.71;101597.53;10275639;28;20047;-75
2023/09/04 09:33:49;;;;;;;3.83;1.75;;;;;;;22.87;48.07;101609.81;10272235;28;20438;-75
2023/09/04 09:38:54;;;;;;;2.50;2.28;;;;;;;22.95;47.37;101606.22;10274578;28;20046;-75
2023/09/04 09:44:00;;;;;;;4.97;2.33;;;;;;;23.30;46.80;101599.41;10274690;28;20383;-75
2023/09/04 09:49:03;;;;;;;3.30;2.10;;;;;;;23.53;46.75;101601.34;10273143;28;20509;-75
2023/09/04 09:54:08;;;;;;;4.43;2.15;;;;;;;23.49;46.41;101605.50;10274476;28;20034;-76
2023/09/04 09:59:14;;;;;;;2.42;1.80;;;;;;;23.81;46.18;101588.84;10274115;28;20418;-74
2023/09/04 10:04:17;;;;;;;3.58;1.70;;;;;;;23.86;45.90;101589.16;10274078;28;20125;-75
2023/09/04 10:09:23;;;;;;;2.97;1.75;;;;;;;24.05;44.98;101576.84;10274304;28;20035;-74
2023/09/04 10:14:33;;;;;;;3.25;1.75;;;;;;;24.19;45.44;101572.41;10271915;28;20042;-75
2023/09/04 10:19:40;;;;;;;3.75;1.80;;;;;;;24.56;43.58;101573.44;10272226;28;20040;-75
2023/09/04 10:24:48;;;;;;;1.40;1.30;;;;;;;25.27;43.61;101561.94;10270160;28;20049;-75
2023/09/04 10:29:57;;;;;;;2.38;1.30;;;;;;;25.35;42.55;101562.69;10270798;28;20058;-75
2023/09/04 10:35:01;;;;;;;3.58;1.77;;;;;;;25.32;42.38;101553.97;10273186;28;20528;-75
2023/09/04 10:40:07;;;;;;;1.42;1.33;;;;;;;25.78;42.81;101546.25;10269464;28;20109;-74
2023/09/04 10:45:15;;;;;;;3.67;1.38;;;;;;;26.14;41.16;101526.00;10270961;28;20034;-74
2023/09/04 10:50:28;;;;;;;2.58;1.45;;;;;;;26.28;40.63;101526.97;10276704;28;20047;-76
2023/09/04 10:55:31;;;;;;;2.63;1.58;;;;;;;26.27;41.13;101525.25;10278332;28;20414;-76
2023/09/04 11:00:36;;;;;;;2.03;1.38;;;;;;;27.45;39.74;101522.47;10276516;28;20031;-76
2023/09/04 11:06:10;;;;;;;3.20;1.30;;;;;;;28.96;36.72;101516.16;10273897;28;20738;-75
2023/09/04 11:11:13;;;;;;;1.92;1.30;;;;;;;28.83;36.32;101503.28;10271231;28;20410;-75
2023/09/04 11:16:18;;;;;;;3.15;1.30;;;;;;;28.82;36.74;101505.16;10275170;28;20050;-75
2023/09/04 11:21:22;;;;;;;1.80;1.30;;;;;;;29.45;35.25;101511.88;10270789;28;20487;-76
2023/09/04 11:26:25;;;;;;;1.35;1.23;;;;;;;29.42;35.46;101495.72;10274603;28;20146;-75
2023/09/04 11:31:31;;;;;;;1.63;1.25;;;;;;;29.51;36.68;101483.31;10267107;28;20042;-75
2023/09/04 11:36:38;;;;;;;2.55;1.33;;;;;;;29.42;35.89;101481.91;10271012;28;20049;-75
2023/09/04 11:41:40;;;;;;;1.65;1.50;;;;;;;28.89;36.04;101481.09;10272645;28;20053;-76
2023/09/04 11:46:45;;;;;;;2.20;1.35;;;;;;;29.29;34.90;101485.59;10269002;28;20042;-75
2023/09/04 11:51:49;;;;;;;2.15;1.20;;;;;;;29.77;34.54;101471.22;10252065;28;20050;-75
2023/09/04 11:56:53;;;;;;;1.77;1.25;;;;;;;29.52;33.56;101471.19;10252924;28;20042;-74
2023/09/04 12:01:57;;;;;;;1.65;1.42;;;;;;;30.09;34.09;101469.22;10266139;28;20043;-75
2023/09/04 12:07:00;;;;;;;2.38;1.60;;;;;;;30.31;33.91;101455.81;10266321;28;20054;-75
2023/09/04 12:12:04;;;;;;;1.63;1.27;;;;;;;29.19;35.08;101469.50;10265254;28;20526;-74
2023/09/04 12:17:11;;;;;;;1.73;1.40;;;;;;;28.81;36.46;101461.16;10266446;28;20118;-74
2023/09/04 12:22:15;;;;;;;2.50;1.38;;;;;;;28.56;36.07;101458.28;10266575;28;20034;-74
2023/09/04 12:27:18;;;;;;;3.10;1.55;;;;;;;28.77;35.30;101452.47;10268286;28;20049;-75
2023/09/04 12:32:23;;;;;;;1.02;0.93;;;;;;;28.09;36.32;101446.50;10270513;28;20039;-75
2023/09/04 12:37:25;;;;;;;1.35;1.10;;;;;;;29.95;34.65;101451.00;10270017;28;20046;-76
2023/09/04 12:42:28;;;;;;;1.40;1.30;;;;;;;32.15;31.88;101446.88;10266960;28;20046;-75
2023/09/04 12:47:33;;;;;;;1.95;1.30;;;;;;;32.56;30.47;101435.84;10266291;28;20051;-75
2023/09/04 12:52:36;;;;;;;1.40;1.30;;;;;;;33.05;30.55;101425.13;10254344;28;20548;-76
2023/09/04 12:57:39;;;;;;;1.10;1.00;;;;;;;32.49;30.54;101410.94;10232976;28;20515;-75
2023/09/04 13:02:44;;;;;;;4.30;1.67;;;;;;;32.30;30.15;101410.25;10217947;28;20051;-75
2023/09/04 13:07:47;;;;;;;2.72;1.52;;;;;;;32.45;29.65;101410.59;10222329;28;20054;-76
2023/09/04 13:12:49;;;;;;;2.13;1.27;;;;;;;31.13;31.27;101409.09;10236189;28;20229;-76
2023/09/04 13:17:56;;;;;;;1.30;1.20;;;;;;;31.55;32.21;101411.00;10231536;28;20391;-75
2023/09/04 13:22:59;;;;;;;2.65;1.40;;;;;;;30.23;32.23;101411.78;10234266;28;20652;-75
2023/09/04 13:28:02;;;;;;;2.25;1.40;;;;;;;30.00;33.74;101404.09;10231178;28;20507;-76
2023/09/04 13:33:06;;;;;;;2.80;1.77;;;;;;;30.28;34.18;101397.19;10237406;28;20084;-76
2023/09/04 13:38:09;;;;;;;1.90;1.38;;;;;;;29.78;32.98;101390.69;10226663;28;20062;-75
2023/09/04 13:43:12;;;;;;;1.15;1.05;;;;;;;29.33;33.62;101385.31;10234422;28;20038;-75
2023/09/04 13:48:16;;;;;;;2.72;1.65;;;;;;;29.53;33.62;101367.69;10233241;28;20054;-75
2023/09/04 13:53:19;;;;;;;1.70;1.35;;;;;;;29.66;33.14;101364.00;10233996;28;20058;-76
2023/09/04 13:58:22;;;;;;;1.58;1.15;;;;;;;29.48;33.21;101359.22;10235308;28;20117;-76
2023/09/04 14:03:27;;;;;;;1.67;1.13;;;;;;;29.80;33.55;101355.31;10228451;28;21289;-74
2023/09/04 14:08:30;;;;;;;2.85;1.20;;;;;;;29.76;33.76;101354.09;10227817;28;20074;-76
2023/09/04 14:13:33;;;;;;;2.25;1.25;;;;;;;29.51;34.13;101356.88;10229340;28;20049;-75
2023/09/04 14:18:37;;;;;;;2.08;1.27;;;;;;;29.15;34.58;101338.22;10230736;28;20553;-77
2023/09/04 14:23:40;;;;;;;1.95;1.48;;;;;;;29.19;34.94;101336.72;10233944;28;20588;-76
2023/09/04 14:28:43;;;;;;;2.50;1.42;;;;;;;29.19;34.72;101333.94;10235810;28;21445;-75
2023/09/04 14:33:47;;;;;;;1.73;1.23;;;;;;;29.67;34.17;101318.59;10241615;28;20061;-76
2023/09/04 14:38:51;;;;;;;2.67;1.48;;;;;;;29.32;34.37;101308.94;10239613;28;20051;-75
2023/09/04 14:43:54;;;;;;;3.58;1.10;;;;;;;28.65;35.49;101322.38;10244944;28;20054;-75
2023/09/04 14:48:58;;;;;;;2.50;1.50;;;;;;;29.00;35.13;101301.72;10243087;28;20051;-75
2023/09/04 14:54:02;;;;;;;1.58;1.33;;;;;;;28.83;34.94;101307.81;10240755;28;20502;-75
2023/09/04 14:59:05;;;;;;;2.83;1.30;;;;;;;29.22;35.73;101305.81;10240992;28;20093;-76
2023/09/04 15:04:11;;;;;;;3.17;1.55;;;;;;;28.22;35.79;101303.69;10235435;28;20047;-76
2023/09/04 15:09:14;;;;;;;1.70;1.10;;;;;;;27.85;36.57;101299.75;10240554;28;20055;-76
2023/09/04 15:14:17;;;;;;;1.40;1.30;;;;;;;28.20;36.07;101292.00;10237443;28;20053;-76
2023/09/04 15:19:21;;;;;;;4.32;1.55;;;;;;;28.37;36.47;101281.28;10235743;28;20054;-75
2023/09/04 15:24:24;;;;;;;2.25;1.30;;;;;;;28.48;36.33;101280.56;10242872;28;20059;-75
2023/09/04 15:29:26;;;;;;;1.90;1.20;;;;;;;28.71;36.63;101270.88;10228838;28;20054;-76
2023/09/04 15:34:31;;;;;;;1.85;1.50;;;;;;;28.51;35.95;101259.94;10232828;28;20055;-75
2023/09/04 15:39:33;;;;;;;2.13;1.45;;;;;;;28.38;36.11;101258.09;10233060;28;20395;-75
2023/09/04 15:44:36;;;;;;;5.95;1.70;;;;;;;28.56;36.41;101253.78;10229051;28;20055;-75
2023/09/04 15:49:41;;;;;;;1.80;1.23;;;;;;;28.43;36.40;101249.16;10230383;28;20039;-74
2023/09/04 15:54:44;;;;;;;2.10;1.67;;;;;;;28.49;36.66;101239.97;10230199;28;20050;-75
2023/09/04 15:59:46;;;;;;;3.05;1.65;;;;;;;28.50;37.04;101236.16;10236741;28;20074;-74
2023/09/04 16:04:51;;;;;;;1.95;1.33;;;;;;;28.58;37.03;101237.81;10233772;28;20054;-77
2023/09/04 16:09:53;;;;;;;2.13;1.45;;;;;;;27.84;37.72;101237.34;10250185;28;21186;-79
2023/09/04 16:14:56;;;;;;;2.45;1.48;;;;;;;27.45;38.60;101225.34;10246706;28;20525;-79
2023/09/04 16:20:01;;;;;;;4.57;2.17;;;;;;;27.18;38.49;101235.56;10239398;28;20051;-78
2023/09/04 16:25:05;;;;;;;4.07;1.65;;;;;;;27.29;39.12;101234.03;10227925;28;20050;-81
2023/09/04 16:30:09;;;;;;;1.60;1.50;;;;;;;26.52;39.77;101231.72;10243583;28;20053;-80
2023/09/04 16:35:14;;;;;;;2.17;1.58;;;;;;;26.50;40.11;101227.47;10244813;28;20480;-79
2023/09/04 16:40:17;;;;;;;2.97;1.50;;;;;;;26.57;40.27;101231.06;10237692;28;20047;-79
2023/09/04 16:45:20;;;;;;;2.33;1.58;;;;;;;26.16;40.51;101223.75;10234333;28;20050;-78
2023/09/04 16:50:25;;;;;;;1.83;1.25;;;;;;;26.34;40.58;101225.13;10232958;28;20135;-81
2023/09/04 16:55:28;;;;;;;4.40;1.80;;;;;;;25.95;40.48;101211.00;10242194;28;20717;-78
2023/09/04 17:00:31;;;;;;;2.92;1.60;;;;;;;25.44;41.15;101208.63;10248058;28;20055;-79
2023/09/04 17:05:36;;;;;;;3.80;1.52;;;;;;;25.02;41.84;101209.59;10252546;28;20061;-80
2023/09/04 17:10:39;;;;;;;2.67;2.15;;;;;;;24.98;42.54;101211.88;10254702;28;21162;-79
2023/09/04 17:15:45;;;;;;;3.33;1.70;;;;;;;24.64;42.83;101210.75;10248622;28;20703;-78
2023/09/04 17:20:49;;;;;;;4.25;1.48;;;;;;;24.21;43.60;101207.13;10240049;28;20053;-76
2023/09/04 17:25:52;;;;;;;1.88;1.60;;;;;;;23.89;44.37;101203.81;10234831;28;20062;-75
2023/09/04 17:30:56;;;;;;;2.92;1.60;;;;;;;23.66;45.00;101204.75;10248185;28;20057;-77
2023/09/04 17:36:01;;;;;;;3.58;1.40;;;;;;;23.51;45.31;101205.84;10256345;28;20043;-77
2023/09/04 17:41:06;;;;;;;2.10;1.80;;;;;;;23.25;46.04;101203.56;10247892;28;20734;-78
2023/09/04 17:46:09;;;;;;;2.00;1.52;;;;;;;23.07;46.28;101207.47;10234591;28;20431;-77
2023/09/04 17:51:13;;;;;;;2.30;1.45;;;;;;;22.91;46.93;101197.53;10240306;28;20051;-78
2023/09/04 17:56:19;;;;;;;5.68;2.13;;;;;;;22.74;47.17;101199.56;10255771;28;20050;-77
2023/09/04 18:01:22;;;;;;;3.35;1.75;;;;;;;22.63;48.00;101202.75;10239352;28;20049;-78
2023/09/04 18:06:26;;;;;;;3.75;2.00;;;;;;;22.46;48.39;101199.31;10231597;28;20510;-75
2023/09/04 18:11:29;;;;;;;3.55;1.80;;;;;;;22.32;49.02;101205.53;10213832;28;20070;-75
2023/09/04 18:16:32;;;;;;;3.90;1.77;;;;;;;22.12;50.52;101210.63;10218967;28;20062;-75
2023/09/04 18:21:36;;;;;;;2.60;2.00;;;;;;;21.87;51.76;101208.03;10225500;28;20070;-75
2023/09/04 18:26:39;;;;;;;1.92;1.75;;;;;;;21.64;53.07;101212.56;10225953;28;20062;-75
2023/09/04 18:31:42;;;;;;;2.95;2.08;;;;;;;21.44;54.04;101214.84;10231017;28;20054;-75
2023/09/04 18:36:47;;;;;;;2.38;1.77;;;;;;;21.22;54.89;101219.16;10218041;28;20074;-76
2023/09/04 18:41:49;;;;;;;4.65;2.28;;;;;;;20.92;55.63;101220.72;10212706;28;20066;-76
2023/09/04 18:46:53;;;;;;;3.13;2.30;;;;;;;20.89;55.69;101226.53;10230697;28;20534;-75
2023/09/04 18:51:58;;;;;;;5.10;2.67;;;;;;;20.81;55.75;101230.13;10230039;28;20127;-78
2023/09/04 18:57:01;;;;;;;3.53;2.10;;;;;;;20.75;55.43;101226.19;10232501;28;20774;-77
2023/09/04 19:02:04;;;;;;;2.67;2.22;;;;;;;20.69;55.59;101226.88;10228957;28;20055;-77
2023/09/04 19:07:08;;;;;;;8.30;2.40;;;;;;;20.62;55.79;101230.47;10233139;28;20426;-77
2023/09/04 19:12:11;;;;;;;2.90;2.20;;;;;;;20.56;55.42;101219.19;10242536;28;20055;-77
2023/09/04 19:17:14;;;;;;;3.28;2.88;;;;;;;20.53;55.98;101230.44;10240547;28;20057;-77
2023/09/04 19:22:19;;;;;;;3.53;2.60;;;;;;;20.55;56.14;101225.69;10241130;28;20050;-77
2023/09/04 19:27:23;;;;;;;3.58;2.92;;;;;;;20.43;56.71;101226.16;10234558;28;20074;-77
2023/09/04 19:32:27;;;;;;;4.13;3.03;;;;;;;20.28;56.73;101225.97;10237025;28;20073;-76
2023/09/04 19:37:31;;;;;;;5.65;3.33;;;;;;;20.33;57.15;101232.66;10240758;28;20061;-76
2023/09/04 19:42:34;;;;;;;6.32;3.17;;;;;;;20.30;57.14;101227.50;10237505;28;20706;-75
2023/09/04 19:47:37;;;;;;;3.50;3.20;;;;;;;20.18;57.60;101223.38;10238454;28;20047;-76
2023/09/04 19:52:41;;;;;;;3.30;3.00;;;;;;;20.05;57.87;101218.41;10226294;28;20577;-77
2023/09/04 19:57:44;;;;;;;2.63;2.40;;;;;;;19.98;57.99;101213.78;10227627;28;20103;-75
2023/09/04 20:02:47;;;;;;;3.67;2.65;;;;;;;19.94;58.67;101217.84;10220854;28;20047;-77
2023/09/04 20:07:51;;;;;;;4.72;2.67;;;;;;;19.89;59.08;101215.66;10220398;28;20061;-76
2023/09/04 20:12:54;;;;;;;3.78;2.78;;;;;;;19.89;58.94;101219.22;10219565;28;20055;-75
2023/09/04 20:17:57;;;;;;;2.50;2.30;;;;;;;19.82;58.67;101215.44;10230215;28;20062;-75
2023/09/04 20:23:01;;;;;;;4.32;3.05;;;;;;;19.77;59.38;101208.78;10243699;28;20558;-77
2023/09/04 20:28:05;;;;;;;3.50;2.67;;;;;;;19.58;59.93;101196.25;10224928;28;20054;-76
2023/09/04 20:33:07;;;;;;;3.90;3.03;;;;;;;19.39;60.49;101197.31;10225148;28;20098;-75
2023/09/04 20:38:12;;;;;;;4.70;3.10;;;;;;;19.31;60.47;101198.16;10221904;28;20126;-75
2023/09/04 20:43:14;;;;;;;3.25;2.85;;;;;;;19.22;60.74;101196.41;10234339;28;20050;-75
2023/09/04 20:48:17;;;;;;;6.07;2.95;;;;;;;19.17;61.12;101201.47;10232857;28;20091;-73
2023/09/04 20:53:22;;;;;;;3.53;2.90;;;;;;;19.17;60.81;101187.84;10234562;28;20821;-74
2023/09/04 20:58:25;;;;;;;8.93;3.60;;;;;;;19.06;61.27;101191.72;10232048;28;20502;-75
2023/09/04 21:03:28;;;;;;;6.93;2.75;;;;;;;19.05;61.44;101180.97;10224526;28;20133;-74
2023/09/04 23:22:04;;;;;;;2.70;2.50;;;;;;;18.22;62.57;101075.28;10249342;28;20137;-74
2023/09/04 23:27:11;;;;;;;3.53;2.70;;;;;;;18.15;62.81;101085.91;10239308;28;20051;-74
2023/09/04 23:32:16;;;;;;;3.65;2.22;;;;;;;17.96;62.97;101061.56;10242071;28;20525;-74
2023/09/04 23:37:23;;;;;;;4.78;3.25;;;;;;;17.89;63.39;101074.94;10236105;28;20054;-74
2023/09/04 23:47:50;;;;;;;4.15;2.95;;;;;;;17.62;64.29;101062.28;10235410;28;20055;-75
2023/09/04 23:52:54;;;;;;;4.22;2.75;;;;;;;17.59;64.53;101054.44;10235342;28;20058;-74
2023/09/04 23:57:57;;;;;;;3.03;2.80;;;;;;;17.60;64.53;101050.72;10237441;28;20051;-74
